Time;durP1;ratioP1;P1;durP2;ratioP2;P2;SDS_P1;SDS_P2;PMS_P1;PMS_P2;Temp;Humidity;BMP_temperature;BMP_pressure;BME280_temperature;BME280_humidity;BME280_pressure;Samples;Min_cycle;Max_cycle;Signal;HPM_P1;HPM_P2
2022/08/24 00:01:04;;;;;;;0.60;0.60;;;;;;;21.67;100.00;94909.06;5098198;28;20503;-59
2022/08/24 00:03:35;;;;;;;0.50;0.40;;;;;;;21.92;100.00;94984.13;5098179;28;20428;-59
2022/08/24 00:06:06;;;;;;;0.93;0.70;;;;;;;21.92;100.00;94978.72;5097988;28;20432;-60
2022/08/24 00:08:35;;;;;;;1.47;0.60;;;;;;;21.85;100.00;94975.03;5098343;28;20530;-60
2022/08/24 00:11:03;;;;;;;0.50;0.37;;;;;;;21.63;100.00;94972.94;5097957;28;20921;-60
2022/08/24 00:13:32;;;;;;;0.50;0.40;;;;;;;21.79;100.00;94973.72;5098045;28;20451;-60
2022/08/24 00:16:07;;;;;;;0.50;0.30;;;;;;;21.34;100.00;94976.81;5097423;28;21197;-60
2022/08/24 00:18:38;;;;;;;0.60;0.60;;;;;;;21.59;100.00;94977.44;5097771;28;20983;-60
2022/08/24 00:21:08;;;;;;;0.60;0.40;;;;;;;21.74;100.00;94973.97;5097147;28;20995;-59
2022/08/24 00:23:36;;;;;;;0.70;0.70;;;;;;;21.43;100.00;94918.88;5097937;28;20526;-59
2022/08/24 00:26:05;;;;;;;1.00;0.77;;;;;;;21.78;100.00;94970.22;5097841;28;20519;-60
2022/08/24 00:28:34;;;;;;;0.60;0.50;;;;;;;21.77;100.00;94974.06;5098161;28;20456;-59
2022/08/24 00:31:03;;;;;;;0.80;0.80;;;;;;;20.82;100.00;94964.19;5097842;28;20523;-60
2022/08/24 00:33:37;;;;;;;1.13;1.07;;;;;;;21.14;100.00;94980.50;5097700;28;20427;-59
2022/08/24 00:36:05;;;;;;;0.60;0.50;;;;;;;21.10;100.00;94976.94;5098118;28;20435;-60
2022/08/24 00:38:34;;;;;;;0.50;0.30;;;;;;;21.05;100.00;94959.03;5095459;28;20515;-60
2022/08/24 00:41:04;;;;;;;0.57;0.47;;;;;;;21.43;100.00;94970.13;5094266;28;20430;-60
2022/08/24 00:43:33;;;;;;;0.50;0.30;;;;;;;21.42;100.00;94963.19;5093902;28;20970;-61
2022/08/24 00:46:14;;;;;;;0.70;0.47;;;;;;;21.37;100.00;94968.81;5094142;28;20452;-61
2022/08/24 00:48:48;;;;;;;0.60;0.30;;;;;;;21.19;100.00;94959.47;5094121;28;20986;-61
2022/08/24 00:51:20;;;;;;;0.50;0.37;;;;;;;21.03;100.00;94941.66;5094686;28;20459;-60
2022/08/24 00:53:53;;;;;;;1.27;0.97;;;;;;;20.36;100.00;94959.38;5094554;28;20831;-60
2022/08/24 00:56:27;;;;;;;3.03;2.73;;;;;;;19.93;100.00;94956.47;5093875;28;20498;-62
2022/08/24 00:59:00;;;;;;;1.03;1.03;;;;;;;19.98;100.00;94959.72;5093905;28;20896;-61
2022/08/24 01:01:33;;;;;;;1.27;1.03;;;;;;;19.95;100.00;94965.78;5094819;28;20479;-60
2022/08/24 01:04:05;;;;;;;1.30;1.27;;;;;;;19.68;100.00;94965.66;5094368;28;20435;-63
2022/08/24 01:06:33;;;;;;;0.70;0.50;;;;;;;19.99;100.00;94963.19;5094096;28;20999;-61
2022/08/24 01:09:02;;;;;;;5.03;1.20;;;;;;;19.84;100.00;94958.47;5094195;28;20424;-59
2022/08/24 01:11:34;;;;;;;1.33;1.23;;;;;;;19.94;100.00;94956.13;5094351;28;20416;-60
2022/08/24 01:14:04;;;;;;;0.80;0.80;;;;;;;19.68;100.00;94965.66;5094217;28;20508;-60
2022/08/24 01:19:29;;;;;;;1.33;0.67;;;;;;;19.76;100.00;94968.22;5094047;28;20593;-60
2022/08/24 01:22:09;;;;;;;0.60;0.60;;;;;;;20.10;100.00;94965.09;5093208;28;20463;-57
2022/08/24 01:24:40;;;;;;;1.13;0.60;;;;;;;20.27;100.00;94975.66;5093011;28;21015;-57
2022/08/24 01:27:10;;;;;;;1.40;0.70;;;;;;;20.39;100.00;94969.44;5092608;28;20448;-57
2022/08/24 01:29:40;;;;;;;0.63;0.40;;;;;;;20.60;100.00;94972.78;5094336;28;20425;-57
2022/08/24 01:32:10;;;;;;;0.60;0.50;;;;;;;20.74;100.00;94970.53;5093379;28;20768;-57
2022/08/24 01:34:39;;;;;;;0.50;0.30;;;;;;;20.78;100.00;94971.41;5093502;28;21040;-57
2022/08/24 01:37:10;;;;;;;0.50;0.50;;;;;;;20.84;100.00;94974.63;5094220;28;20492;-57
2022/08/24 01:39:43;;;;;;;0.80;0.80;;;;;;;21.01;100.00;94974.34;5094074;28;20459;-57
2022/08/24 01:42:13;;;;;;;0.73;0.73;;;;;;;20.62;100.00;94972.44;5093423;28;20432;-57
2022/08/24 01:44:45;;;;;;;5.07;0.63;;;;;;;20.10;100.00;94967.00;5093955;28;20501;-57
2022/08/24 01:47:16;;;;;;;1.00;1.00;;;;;;;19.84;100.00;94975.41;5092663;28;20452;-57
2022/08/24 01:49:48;;;;;;;1.17;0.70;;;;;;;19.98;100.00;94986.63;5091192;28;20527;-57
2022/08/24 01:52:19;;;;;;;0.90;0.90;;;;;;;20.40;100.00;94981.00;5092946;28;20511;-57
2022/08/24 01:54:49;;;;;;;0.67;0.63;;;;;;;20.59;100.00;94991.97;5093768;28;20449;-57
2022/08/24 01:57:19;;;;;;;0.80;0.70;;;;;;;20.51;100.00;94985.59;5092797;28;20468;-57
2022/08/24 01:59:50;;;;;;;1.17;0.70;;;;;;;20.55;100.00;94975.72;5092951;28;20432;-57
2022/08/24 02:02:25;;;;;;;0.50;0.50;;;;;;;20.02;100.00;94976.75;5092695;28;20788;-56
2022/08/24 02:04:53;;;;;;;2.40;1.93;;;;;;;19.04;100.00;94912.41;5092460;28;20448;-56
2022/08/24 02:07:22;;;;;;;2.00;1.57;;;;;;;19.34;100.00;94982.91;5093481;28;20519;-56
2022/08/24 02:09:52;;;;;;;0.60;0.60;;;;;;;19.14;100.00;94986.44;5093077;28;20792;-57
2022/08/24 02:12:21;;;;;;;0.50;0.30;;;;;;;19.08;100.00;94987.72;5092504;28;21021;-56
2022/08/24 02:14:50;;;;;;;3.43;1.30;;;;;;;19.17;100.00;94988.47;5093383;28;20420;-56
2022/08/24 02:17:18;;;;;;;0.50;0.43;;;;;;;19.27;100.00;94986.16;5092847;28;20490;-57
2022/08/24 02:19:47;;;;;;;2.13;1.90;;;;;;;19.19;100.00;94991.59;5092580;28;21050;-57
2022/08/24 02:22:15;;;;;;;0.50;0.30;;;;;;;19.63;100.00;94985.47;5092606;28;20912;-57
2022/08/24 02:24:44;;;;;;;1.23;1.03;;;;;;;20.10;100.00;94986.63;5092353;28;20459;-57
2022/08/24 02:27:15;;;;;;;0.50;0.40;;;;;;;20.40;100.00;94995.25;5093204;28;20504;-57
2022/08/24 02:29:44;;;;;;;0.80;0.80;;;;;;;20.05;100.00;95003.00;5092727;28;20516;-57
2022/08/24 02:32:13;;;;;;;0.63;0.63;;;;;;;19.89;100.00;95009.34;5093080;28;20420;-57
2022/08/24 02:34:42;;;;;;;1.13;1.13;;;;;;;20.01;100.00;95007.44;5091826;28;20512;-57
2022/08/24 02:37:11;;;;;;;10.43;0.93;;;;;;;20.03;100.00;95002.53;5093008;28;20910;-57
2022/08/24 02:39:39;;;;;;;1.20;1.10;;;;;;;19.99;100.00;95000.84;5092956;28;20455;-57
2022/08/24 02:42:08;;;;;;;0.93;0.93;;;;;;;19.93;100.00;95010.28;5092586;28;20869;-57
2022/08/24 02:44:38;;;;;;;1.30;1.03;;;;;;;19.35;100.00;95014.84;5093008;28;20452;-57
2022/08/24 02:47:06;;;;;;;0.70;0.50;;;;;;;19.66;100.00;95010.91;5092663;28;20978;-57
2022/08/24 02:49:35;;;;;;;1.50;1.40;;;;;;;20.10;100.00;95010.84;5092790;28;20434;-57
2022/08/24 02:52:04;;;;;;;2.60;0.80;;;;;;;20.04;100.00;95006.78;5092779;28;20456;-57
2022/08/24 02:54:32;;;;;;;0.70;0.70;;;;;;;19.96;100.00;95007.69;5092363;28;20424;-57
2022/08/24 02:57:00;;;;;;;0.60;0.43;;;;;;;20.16;100.00;95011.41;5092117;28;20503;-57
2022/08/24 02:59:29;;;;;;;0.90;0.70;;;;;;;19.83;100.00;95022.25;5091847;28;20492;-56
2022/08/24 03:01:59;;;;;;;0.80;0.73;;;;;;;19.64;100.00;95019.28;5091977;28;20448;-57
2022/08/24 03:04:27;;;;;;;4.27;1.13;;;;;;;20.03;100.00;95016.00;5091835;28;20464;-57
2022/08/24 03:06:56;;;;;;;0.70;0.60;;;;;;;19.95;100.00;95021.47;5092310;28;20508;-57
2022/08/24 03:09:24;;;;;;;0.60;0.60;;;;;;;20.19;100.00;95029.53;5091618;28;20475;-57
2022/08/24 03:11:56;;;;;;;0.50;0.40;;;;;;;20.22;100.00;95026.97;5091897;28;20424;-57
2022/08/24 03:14:24;;;;;;;0.60;0.53;;;;;;;20.17;100.00;95021.81;5091027;28;20459;-56
2022/08/24 03:16:53;;;;;;;0.97;0.97;;;;;;;19.73;100.00;95014.63;5091647;28;20463;-56
2022/08/24 03:19:23;;;;;;;0.73;0.70;;;;;;;19.37;100.00;95030.66;5091800;28;20535;-57
2022/08/24 03:21:52;;;;;;;1.00;0.90;;;;;;;19.35;100.00;95022.13;5091739;28;20933;-56
2022/08/24 03:24:20;;;;;;;0.63;0.50;;;;;;;19.60;100.00;95013.81;5091705;28;20967;-57
2022/08/24 03:26:49;;;;;;;1.37;0.83;;;;;;;19.37;100.00;95017.22;5091988;28;20775;-56
2022/08/24 03:29:17;;;;;;;0.57;0.50;;;;;;;19.52;100.00;95017.38;5092127;28;20451;-56
2022/08/24 03:31:47;;;;;;;1.50;1.40;;;;;;;19.93;100.00;95019.13;5091796;28;20962;-58
2022/08/24 03:34:16;;;;;;;1.67;0.80;;;;;;;19.89;100.00;95015.53;5091291;28;20460;-56
2022/08/24 03:36:46;;;;;;;8.73;0.73;;;;;;;19.86;100.00;95024.25;5091752;28;20980;-56
2022/08/24 03:39:15;;;;;;;0.73;0.73;;;;;;;20.21;100.00;95022.69;5090938;28;20870;-56
2022/08/24 03:41:44;;;;;;;0.60;0.60;;;;;;;20.33;100.00;95018.47;5091663;28;20467;-56
2022/08/24 03:44:12;;;;;;;1.33;1.23;;;;;;;20.03;100.00;95021.38;5091706;28;20519;-57
2022/08/24 03:46:41;;;;;;;0.70;0.70;;;;;;;20.29;100.00;95012.97;5091541;28;20507;-56
2022/08/24 03:49:10;;;;;;;0.83;0.83;;;;;;;20.23;100.00;95017.03;5091474;28;20455;-56
2022/08/24 03:51:39;;;;;;;1.80;0.43;;;;;;;20.21;100.00;95024.63;5091565;28;20507;-56
2022/08/24 03:54:10;;;;;;;0.50;0.50;;;;;;;20.26;100.00;95013.69;5090751;28;20507;-57
2022/08/24 03:56:39;;;;;;;1.23;1.23;;;;;;;20.42;100.00;95016.44;5091110;28;20421;-57
2022/08/24 03:59:09;;;;;;;0.80;0.80;;;;;;;20.68;100.00;95022.25;5090995;28;20547;-57
2022/08/24 04:01:38;;;;;;;0.83;0.83;;;;;;;20.84;100.00;95021.22;5091083;28;20428;-57
2022/08/24 04:04:06;;;;;;;0.50;0.30;;;;;;;20.61;100.00;95019.34;5091340;28;20435;-57
2022/08/24 04:06:35;;;;;;;0.90;0.47;;;;;;;20.52;100.00;95010.59;5090373;28;20460;-57
2022/08/24 04:09:04;;;;;;;0.80;0.30;;;;;;;20.48;100.00;94996.25;5089955;28;20469;-57
2022/08/24 04:11:34;;;;;;;0.53;0.40;;;;;;;20.67;100.00;95008.00;5091299;28;20463;-57
2022/08/24 04:14:08;;;;;;;0.70;0.70;;;;;;;20.63;100.00;94990.16;5093495;28;20424;-57
2022/08/24 04:16:55;;;;;;;0.97;0.87;;;;;;;20.03;100.00;95005.25;5095033;28;20979;-57
2022/08/24 04:19:25;;;;;;;1.23;1.20;;;;;;;20.38;100.00;95007.47;5094725;28;20896;-57
2022/08/24 04:21:57;;;;;;;0.50;0.40;;;;;;;20.15;100.00;95004.44;5094421;28;20423;-57
2022/08/24 04:24:26;;;;;;;0.90;0.90;;;;;;;19.75;100.00;95008.91;5094895;28;20860;-57
2022/08/24 04:26:56;;;;;;;0.80;0.80;;;;;;;19.37;100.00;95020.69;5094938;28;20503;-57
2022/08/24 04:29:24;;;;;;;1.27;1.17;;;;;;;19.25;100.00;95025.22;5094033;28;20467;-57
2022/08/24 04:31:53;;;;;;;1.90;1.80;;;;;;;19.43;100.00;95021.28;5094933;28;20440;-57
2022/08/24 04:34:22;;;;;;;2.20;2.10;;;;;;;19.42;100.00;95031.22;5094457;28;20460;-57
2022/08/24 04:36:50;;;;;;;1.43;1.33;;;;;;;19.06;100.00;95031.06;5094743;28;20440;-57
2022/08/24 04:39:19;;;;;;;1.00;0.90;;;;;;;19.08;100.00;95038.78;5094794;28;20478;-57
2022/08/24 04:41:47;;;;;;;1.47;1.37;;;;;;;19.95;100.00;95035.72;5094614;28;20431;-57
2022/08/24 04:44:19;;;;;;;0.57;0.43;;;;;;;20.10;100.00;95036.94;5094269;28;20515;-56
2022/08/24 04:46:47;;;;;;;0.70;0.67;;;;;;;20.24;100.00;95026.66;5094338;28;20871;-57
2022/08/24 04:49:16;;;;;;;2.13;1.30;;;;;;;20.07;100.00;95024.16;5094047;28;20409;-57
2022/08/24 04:51:44;;;;;;;0.60;0.30;;;;;;;20.15;100.00;95023.28;5094055;28;20826;-56
2022/08/24 04:54:12;;;;;;;0.97;0.97;;;;;;;20.24;100.00;95027.44;5093627;28;20507;-57
2022/08/24 04:56:41;;;;;;;0.87;0.70;;;;;;;20.53;100.00;95028.34;5092042;28;20523;-57
2022/08/24 04:59:09;;;;;;;0.50;0.40;;;;;;;20.90;100.00;95030.63;5092598;28;20563;-57
2022/08/24 05:01:43;;;;;;;0.50;0.40;;;;;;;20.90;100.00;95021.75;5092948;28;20469;-55
2022/08/24 05:04:12;;;;;;;2.60;0.80;;;;;;;21.20;100.00;95020.31;5093877;28;20427;-56
2022/08/24 05:06:41;;;;;;;0.73;0.60;;;;;;;21.25;100.00;95013.94;5094015;28;20455;-56
2022/08/24 05:09:12;;;;;;;1.03;0.57;;;;;;;20.96;100.00;95017.69;5094245;28;20872;-55
2022/08/24 05:11:43;;;;;;;1.47;1.37;;;;;;;20.93;100.00;95002.22;5093776;28;20504;-67
2022/08/24 05:14:17;;;;;;;1.13;0.70;;;;;;;21.28;100.00;95027.47;5093867;28;20431;-67
2022/08/24 05:16:47;;;;;;;0.57;0.37;;;;;;;21.47;100.00;94994.50;5093755;28;20952;-66
2022/08/24 05:19:21;;;;;;;0.73;0.60;;;;;;;22.03;100.00;95032.94;5093048;28;20487;-65
2022/08/24 05:21:50;;;;;;;2.90;0.40;;;;;;;21.79;100.00;94998.00;5093555;28;20913;-64
2022/08/24 05:24:19;;;;;;;1.10;0.80;;;;;;;22.40;100.00;95036.94;5092978;28;20516;-64
2022/08/24 05:26:47;;;;;;;0.77;0.77;;;;;;;22.73;100.00;95026.53;5093571;28;20937;-58
2022/08/24 05:29:17;;;;;;;1.30;1.00;;;;;;;23.09;100.00;95021.88;5093896;28;20424;-58
2022/08/24 05:31:47;;;;;;;2.07;1.53;;;;;;;23.31;100.00;95015.75;5093607;28;20485;-59
2022/08/24 05:34:16;;;;;;;0.97;0.97;;;;;;;23.59;100.00;95008.22;5093643;28;20428;-59
2022/08/24 05:36:45;;;;;;;1.13;1.03;;;;;;;23.27;100.00;95009.50;5093451;28;20467;-59
2022/08/24 05:39:14;;;;;;;1.43;1.20;;;;;;;23.13;100.00;95006.50;5092665;28;20464;-60
2022/08/24 05:41:45;;;;;;;5.00;1.20;;;;;;;23.40;100.00;95004.75;5093130;28;20546;-60
2022/08/24 05:44:15;;;;;;;0.60;0.60;;;;;;;23.93;100.00;94996.44;5093529;28;20451;-60
2022/08/24 05:46:44;;;;;;;1.20;0.70;;;;;;;24.22;100.00;94994.22;5092640;28;20416;-60
2022/08/24 05:49:14;;;;;;;1.23;1.20;;;;;;;24.25;100.00;94986.16;5091746;28;20432;-60
2022/08/24 05:51:42;;;;;;;1.77;1.67;;;;;;;24.02;100.00;94985.38;5093418;28;20455;-60
2022/08/24 05:54:12;;;;;;;0.70;0.50;;;;;;;24.29;100.00;94984.28;5093010;28;20471;-61
2022/08/24 05:56:41;;;;;;;0.60;0.40;;;;;;;24.75;100.00;94976.81;5092798;28;20428;-61
2022/08/24 05:59:09;;;;;;;0.80;0.73;;;;;;;25.07;100.00;94991.59;5093120;28;20460;-62
2022/08/24 06:01:38;;;;;;;0.87;0.80;;;;;;;25.54;100.00;94992.94;5093471;28;20485;-62
2022/08/24 06:04:12;;;;;;;0.60;0.60;;;;;;;25.56;100.00;94990.63;5093138;28;20436;-60
2022/08/24 06:06:42;;;;;;;4.20;0.87;;;;;;;25.64;100.00;94997.69;5093173;28;20449;-60
2022/08/24 06:09:16;;;;;;;3.80;1.40;;;;;;;25.51;100.00;94994.47;5092799;28;20435;-60
2022/08/24 06:11:46;;;;;;;2.13;1.00;;;;;;;25.88;100.00;94997.16;5092813;28;20877;-60
2022/08/24 06:14:17;;;;;;;1.20;1.20;;;;;;;26.22;100.00;94993.22;5092778;28;20525;-61
2022/08/24 06:16:47;;;;;;;1.77;1.63;;;;;;;25.35;100.00;95006.66;5092759;28;20946;-60
2022/08/24 06:19:19;;;;;;;0.60;0.50;;;;;;;25.20;100.00;94986.69;5092184;28;20487;-60
2022/08/24 06:21:51;;;;;;;2.50;1.10;;;;;;;25.36;100.00;95003.56;5092821;28;20517;-60
2022/08/24 06:27:19;;;;;;;0.90;0.90;;;;;;;25.68;100.00;95004.72;5093007;28;20444;-60
2022/08/24 06:27:21;;;;;;;1.97;1.70;;;;;;;24.85;100.00;95003.31;5092587;28;20516;-60
2022/08/24 06:29:50;;;;;;;3.93;1.27;;;;;;;24.92;100.00;94997.97;5092687;28;20428;-60
2022/08/24 06:32:19;;;;;;;1.87;1.50;;;;;;;24.93;100.00;95001.47;5092187;28;20449;-60
2022/08/24 06:34:48;;;;;;;1.73;1.63;;;;;;;25.09;100.00;95002.09;5092279;28;20489;-61
2022/08/24 06:37:18;;;;;;;2.37;2.17;;;;;;;25.77;100.00;95001.72;5091518;28;20428;-61
2022/08/24 06:39:47;;;;;;;6.53;1.00;;;;;;;26.51;100.00;94999.66;5092282;28;20562;-61
2022/08/24 06:42:23;;;;;;;0.80;0.70;;;;;;;26.80;100.00;94997.91;5092008;28;20526;-62
2022/08/24 06:44:52;;;;;;;2.00;1.60;;;;;;;26.54;100.00;94998.88;5092834;28;20489;-62
2022/08/24 06:47:21;;;;;;;3.00;1.30;;;;;;;26.23;100.00;94988.56;5092548;28;20448;-63
2022/08/24 06:49:50;;;;;;;1.03;0.97;;;;;;;26.92;100.00;94983.97;5092342;28;20468;-63
2022/08/24 06:52:20;;;;;;;1.03;0.97;;;;;;;27.71;94.30;94973.78;5092310;28;20908;-64
2022/08/24 06:54:49;;;;;;;0.60;0.40;;;;;;;27.93;96.68;94979.28;5092354;28;20507;-64
2022/08/24 06:57:18;;;;;;;1.03;0.93;;;;;;;28.05;96.18;94976.22;5092623;28;20444;-63
2022/08/24 06:59:46;;;;;;;0.60;0.50;;;;;;;27.80;95.35;94981.59;5091836;28;20551;-63
2022/08/24 07:02:17;;;;;;;2.00;0.93;;;;;;;28.23;94.51;94975.03;5092352;28;20504;-64
2022/08/24 07:04:46;;;;;;;4.80;1.60;;;;;;;27.80;93.98;94953.59;5091945;28;20472;-64
2022/08/24 07:07:16;;;;;;;1.20;1.20;;;;;;;28.27;89.15;94970.38;5092377;28;20452;-62
2022/08/24 07:09:46;;;;;;;0.93;0.70;;;;;;;28.94;86.69;94969.50;5092342;28;20440;-61
2022/08/24 07:12:14;;;;;;;6.20;1.07;;;;;;;29.05;85.64;94958.53;5091757;28;20520;-60
2022/08/24 07:14:42;;;;;;;0.80;0.73;;;;;;;29.11;83.76;94965.16;5092096;28;21035;-60
2022/08/24 07:17:11;;;;;;;0.70;0.67;;;;;;;29.99;82.02;94964.72;5091844;28;20425;-60
2022/08/24 07:19:40;;;;;;;7.60;1.40;;;;;;;30.27;76.45;94971.91;5091740;28;20500;-60
2022/08/24 07:22:08;;;;;;;2.00;1.90;;;;;;;30.55;72.90;94963.50;5091775;28;20938;-60
2022/08/24 07:24:36;;;;;;;0.60;0.60;;;;;;;30.65;68.72;94974.34;5091855;28;20416;-61
2022/08/24 07:27:06;;;;;;;2.77;0.80;;;;;;;31.26;67.80;94971.75;5091717;28;20998;-61
2022/08/24 07:29:35;;;;;;;1.07;0.77;;;;;;;31.20;67.72;94968.69;5091675;28;20458;-61
2022/08/24 07:32:20;;;;;;;1.13;1.10;;;;;;;31.07;69.46;94973.13;5092252;28;20434;-62
2022/08/24 07:34:49;;;;;;;0.70;0.70;;;;;;;31.22;70.83;94980.00;5091888;28;20430;-62
2022/08/24 07:37:17;;;;;;;1.07;1.07;;;;;;;30.53;71.12;94983.06;5091524;28;20509;-63
2022/08/24 07:39:46;;;;;;;0.70;0.70;;;;;;;31.43;64.75;94974.28;5091733;28;20846;-64
2022/08/24 07:42:16;;;;;;;1.40;1.30;;;;;;;31.21;69.25;94967.50;5091915;28;20495;-65
2022/08/24 07:44:58;;;;;;;1.27;0.80;;;;;;;31.43;66.91;94965.28;5091453;28;20438;-65
2022/08/24 07:47:26;;;;;;;0.90;0.80;;;;;;;30.95;63.24;94883.34;5092634;28;20946;-65
2022/08/24 07:50:07;;;;;;;1.23;1.13;;;;;;;31.01;67.70;94972.03;5095510;28;20907;-63
2022/08/24 07:52:35;;;;;;;1.03;0.70;;;;;;;30.92;71.13;94966.25;5095777;28;20438;-65
2022/08/24 07:55:05;;;;;;;0.50;0.50;;;;;;;30.69;73.00;94958.66;5095480;28;20444;-66
2022/08/24 07:57:38;;;;;;;0.97;0.97;;;;;;;30.53;75.55;94968.59;5095257;28;20896;-66
2022/08/24 08:00:09;;;;;;;0.93;0.93;;;;;;;30.46;70.61;94968.69;5095206;28;20479;-65
2022/08/24 08:02:37;;;;;;;0.63;0.50;;;;;;;30.63;71.95;94915.75;5095275;28;20437;-64
2022/08/24 08:05:07;;;;;;;1.80;1.00;;;;;;;30.95;74.52;94965.47;5095175;28;20440;-65
2022/08/24 08:07:36;;;;;;;1.40;1.30;;;;;;;31.04;69.08;94970.44;5095151;28;20526;-64
2022/08/24 08:10:05;;;;;;;1.67;1.57;;;;;;;31.51;62.94;94971.47;5095177;28;20512;-63
2022/08/24 08:12:35;;;;;;;1.87;1.77;;;;;;;31.89;60.87;94972.88;5095198;28;20912;-64
2022/08/24 08:15:07;;;;;;;0.97;0.97;;;;;;;31.69;61.18;94974.75;5094991;28;20519;-58
2022/08/24 08:17:36;;;;;;;0.70;0.70;;;;;;;31.00;60.02;94926.69;5095357;28;20887;-56
2022/08/24 08:20:07;;;;;;;0.60;0.60;;;;;;;31.03;62.95;94920.41;5094714;28;20571;-55
2022/08/24 08:25:22;;;;;;;1.23;0.73;;;;;;;30.24;76.04;94987.19;5095048;28;20528;-55
2022/08/24 08:27:52;;;;;;;1.73;1.63;;;;;;;29.72;81.08;95010.94;5095200;28;20861;-54
2022/08/24 08:30:20;;;;;;;0.97;0.97;;;;;;;29.13;81.04;94999.06;5095210;28;20789;-55
2022/08/24 08:32:49;;;;;;;1.13;1.13;;;;;;;29.47;79.54;94993.91;5095100;28;20514;-55
2022/08/24 08:35:18;;;;;;;4.23;1.00;;;;;;;28.77;85.87;94990.19;5094709;28;20982;-55
2022/08/24 08:37:46;;;;;;;0.83;0.70;;;;;;;29.27;84.16;95001.00;5094676;28;20462;-56
2022/08/24 08:40:28;;;;;;;2.70;1.03;;;;;;;29.62;84.39;94976.25;5094486;28;20473;-55
2022/08/24 08:43:05;;;;;;;1.33;1.23;;;;;;;29.59;80.51;94993.44;5093515;28;20954;-54
2022/08/24 08:45:56;;;;;;;1.20;1.10;;;;;;;29.54;78.54;94961.09;5094765;28;20446;-54
2022/08/24 08:49:02;;;;;;;1.43;1.33;;;;;;;29.42;81.89;95000.53;5090762;28;20980;-54
2022/08/24 08:51:58;;;;;;;1.47;1.47;;;;;;;29.49;74.81;94992.31;5094411;28;20534;-54
2022/08/24 08:54:33;;;;;;;3.30;2.40;;;;;;;29.30;80.90;94979.13;5094176;28;20465;-54
2022/08/24 08:57:14;;;;;;;1.30;1.20;;;;;;;30.37;69.20;94999.22;5094093;28;20437;-54
2022/08/24 09:00:04;;;;;;;0.80;0.80;;;;;;;31.20;67.77;94990.59;5093961;28;20485;-54
2022/08/24 09:02:57;;;;;;;1.60;1.47;;;;;;;30.34;73.17;94985.53;5094283;28;20490;-54
2022/08/24 09:06:05;;;;;;;1.43;1.43;;;;;;;31.33;67.84;94983.41;5094414;28;20431;-55
2022/08/24 09:08:56;;;;;;;1.33;1.23;;;;;;;31.27;55.44;94989.75;5094105;28;20878;-55
2022/08/24 09:11:32;;;;;;;2.03;1.20;;;;;;;31.97;55.65;94977.09;5094322;28;20495;-54
2022/08/24 09:14:18;;;;;;;1.53;1.43;;;;;;;32.74;55.64;94966.84;5094228;28;20451;-54
2022/08/24 09:17:08;;;;;;;0.93;0.93;;;;;;;33.95;52.16;94963.25;5094316;28;20449;-54
2022/08/24 09:19:55;;;;;;;1.27;1.17;;;;;;;33.24;46.72;94940.00;5093829;28;20480;-54
2022/08/24 09:22:24;;;;;;;0.50;0.50;;;;;;;33.55;50.35;94961.78;5093728;28;20509;-54
2022/08/24 09:25:22;;;;;;;0.73;0.60;;;;;;;33.13;55.74;94968.88;5094200;28;20455;-54
2022/08/24 09:28:12;;;;;;;1.27;1.17;;;;;;;32.69;50.90;94950.84;5093878;28;20439;-54
2022/08/24 09:31:05;;;;;;;0.57;0.57;;;;;;;32.55;51.20;94938.19;5094056;28;20438;-58
2022/08/24 09:33:44;;;;;;;1.57;0.70;;;;;;;33.19;52.71;94956.22;5093930;28;20435;-57
2022/08/24 09:36:22;;;;;;;1.07;1.00;;;;;;;33.23;43.62;94965.16;5093657;28;20510;-58
2022/08/24 09:38:59;;;;;;;0.80;0.60;;;;;;;33.54;45.27;94943.72;5093517;28;20956;-60
2022/08/24 09:42:13;;;;;;;2.00;1.60;;;;;;;32.18;47.73;94956.81;5093653;28;20467;-60
2022/08/24 09:45:09;;;;;;;3.23;0.73;;;;;;;31.68;51.09;94962.22;5079687;28;20523;-55
2022/08/24 09:48:26;;;;;;;1.03;1.00;;;;;;;31.29;50.87;94955.28;5053074;28;20543;-54
2022/08/24 09:51:31;;;;;;;1.70;0.73;;;;;;;31.46;51.40;94947.25;5090039;28;20530;-54
2022/08/24 09:54:23;;;;;;;0.70;0.70;;;;;;;32.27;49.68;94946.88;5092459;28;20482;-56
2022/08/24 09:57:08;;;;;;;1.23;1.23;;;;;;;32.60;50.82;94945.16;5092768;28;20493;-56
2022/08/24 10:00:02;;;;;;;2.03;1.93;;;;;;;32.49;50.08;94950.78;5093113;28;20518;-56
2022/08/24 10:02:55;;;;;;;1.47;1.37;;;;;;;32.32;50.23;94943.63;5092946;28;20538;-56
2022/08/24 10:05:39;;;;;;;0.60;0.60;;;;;;;33.31;46.42;94900.63;5093101;28;20467;-55
2022/08/24 10:08:25;;;;;;;0.60;0.57;;;;;;;33.68;47.62;94941.44;5092873;28;20443;-56
2022/08/24 10:11:00;;;;;;;1.23;0.63;;;;;;;33.14;49.08;94929.25;5091748;28;20959;-56
2022/08/24 10:13:39;;;;;;;0.93;0.40;;;;;;;34.07;44.51;94939.81;5093009;28;20458;-56
2022/08/24 10:16:26;;;;;;;0.50;0.50;;;;;;;34.38;41.79;94936.25;5093081;28;20516;-56
2022/08/24 10:19:07;;;;;;;0.83;0.83;;;;;;;34.30;45.02;94929.41;5092469;28;20482;-57
2022/08/24 10:21:45;;;;;;;0.87;0.50;;;;;;;33.90;43.30;94899.72;5092863;28;20495;-57
2022/08/24 10:24:37;;;;;;;1.17;0.40;;;;;;;34.90;41.32;94924.31;5092614;28;20475;-57
2022/08/24 10:27:46;;;;;;;0.43;0.43;;;;;;;35.06;42.35;94924.31;5092789;28;20547;-56
2022/08/24 10:30:33;;;;;;;2.20;1.13;;;;;;;35.15;41.02;94921.69;5087349;28;20519;-56
2022/08/24 10:33:13;;;;;;;0.73;0.73;;;;;;;35.29;39.39;94913.03;5092230;28;20519;-57
2022/08/24 10:35:59;;;;;;;0.57;0.57;;;;;;;35.13;40.24;94923.31;5092438;28;20570;-57
2022/08/24 10:42:02;;;;;;;0.40;0.40;;;;;;;35.40;41.51;94927.25;5092291;28;20424;-57
2022/08/24 10:44:45;;;;;;;5.33;0.70;;;;;;;35.02;42.77;94927.13;5078682;28;20196;-57
2022/08/24 10:47:21;;;;;;;0.50;0.50;;;;;;;34.28;43.79;94926.28;5092068;28;20424;-57
2022/08/24 10:50:25;;;;;;;0.70;0.70;;;;;;;33.64;45.37;94918.78;5092171;28;20186;-57
2022/08/24 10:53:24;;;;;;;0.70;0.70;;;;;;;34.27;46.08;94922.03;5092583;28;20428;-57
2022/08/24 10:56:05;;;;;;;1.13;1.13;;;;;;;33.74;44.61;94901.25;5091844;28;20507;-57
2022/08/24 10:58:56;;;;;;;0.60;0.50;;;;;;;34.52;43.66;94910.38;5091814;28;20461;-57
2022/08/24 11:01:30;;;;;;;0.90;0.87;;;;;;;34.86;44.50;94907.91;5091819;28;20960;-57
2022/08/24 11:04:04;;;;;;;6.40;1.20;;;;;;;34.88;41.75;94902.75;5092373;28;20459;-57
2022/08/24 11:06:35;;;;;;;1.10;0.97;;;;;;;35.40;43.70;94896.16;5092189;28;20444;-57
2022/08/24 11:09:09;;;;;;;0.50;0.50;;;;;;;35.31;41.31;94899.56;5092153;28;20193;-57
2022/08/24 11:11:45;;;;;;;1.47;1.00;;;;;;;35.82;41.47;94897.66;5091854;28;20592;-58
2022/08/24 11:14:25;;;;;;;1.03;0.93;;;;;;;34.90;39.13;94896.78;5091893;28;20280;-58
2022/08/24 11:17:14;;;;;;;4.53;3.10;;;;;;;35.48;38.67;94886.47;5091949;28;20246;-57
2022/08/24 11:19:43;;;;;;;0.50;0.50;;;;;;;35.68;40.05;94887.84;5091543;28;20322;-57
2022/08/24 11:22:29;;;;;;;2.60;1.10;;;;;;;36.36;39.83;94883.69;5091297;28;20245;-58
2022/08/24 11:25:01;;;;;;;2.63;1.10;;;;;;;35.74;38.72;94882.53;5091646;28;20259;-57
2022/08/24 11:27:35;;;;;;;0.77;0.77;;;;;;;36.29;34.78;94868.16;5091792;28;20221;-57
2022/08/24 11:30:10;;;;;;;0.60;0.60;;;;;;;36.81;36.87;94866.78;5091893;28;20277;-57
2022/08/24 11:32:44;;;;;;;2.05;1.95;;;;;;;36.90;35.77;94856.56;5091784;28;20193;-57
2022/08/24 11:35:21;;;;;;;0.57;0.47;;;;;;;37.38;35.92;94844.13;5091415;28;20308;-57
2022/08/24 11:37:51;;;;;;;0.40;0.30;;;;;;;37.03;34.13;94848.22;5091101;28;20277;-57
2022/08/24 11:40:25;;;;;;;0.45;0.45;;;;;;;37.93;34.52;94827.75;5091396;28;20222;-58
2022/08/24 11:43:25;;;;;;;0.40;0.40;;;;;;;37.65;34.82;94829.66;5091266;28;20215;-58
2022/08/24 11:46:06;;;;;;;0.50;0.40;;;;;;;37.83;34.71;94831.69;5090439;28;20286;-58
2022/08/24 11:48:48;;;;;;;0.63;0.63;;;;;;;37.81;31.72;94831.41;5091306;28;20270;-58
2022/08/24 11:51:29;;;;;;;0.40;0.32;;;;;;;37.81;31.22;94823.09;5091383;28;20293;-58
2022/08/24 11:54:05;;;;;;;0.40;0.40;;;;;;;38.46;30.89;94826.31;5091632;28;20211;-58
2022/08/24 11:56:40;;;;;;;0.40;0.30;;;;;;;38.97;30.05;94820.16;5090936;28;20198;-58
2022/08/24 11:59:18;;;;;;;0.85;0.85;;;;;;;38.77;29.02;94820.66;5091327;28;20219;-58
2022/08/24 12:01:51;;;;;;;0.50;0.40;;;;;;;38.47;29.55;94819.56;5091127;28;20191;-59
2022/08/24 12:04:41;;;;;;;0.77;0.52;;;;;;;36.98;31.56;94799.06;5091162;28;20192;-57
2022/08/24 12:07:25;;;;;;;0.47;0.43;;;;;;;36.87;33.14;94802.19;5091474;28;20192;-58
2022/08/24 12:10:12;;;;;;;1.05;0.60;;;;;;;36.97;34.92;94799.50;5091058;28;20244;-57